Mc Comb/Pike County/John E Lewis Field
KMCB : now visible

Airfield :











YOU CAN JOIN US ON...

 
LOGIN :

Register | Disclaimer

   EN    FR    IT 

 









Legend :    VFR   Marginal VFR   IFR   Intensive IFR   Very Intensive IFR
Visi :
Ceiling :
>= 8 km
>= 3000ft
5 to 8 km
1000 to 3000 ft
1500m to 5 km
500 to 1000 ft
800 to 1500m
200 to 500 ft
< 800m
< 200 ft
Symbols :   Thunderstorms  Fog  Heavy snow  Heavy precipitations  Wind > 20 kt






- Airport Elevation : 413 ft


KMCB - Mc Comb/Pike County/John E Lewis Field

CURRENT METAR :
  • 230853Z AUTO 00000KT 10SM CLR 23/20 A2995 RMK AO2 SLP134 T02280200 55022

EXPIRED METARs :
  • 230753Z AUTO 13010KT 10SM CLR 22/20 A2990 RMK AO2 PRESFR SLP120 T02220200
  • 230653Z AUTO 00000KT 10SM CLR 23/20 A3002 RMK AO2 SLP158 T02280200
  • 230553Z AUTO 16006KT 10SM CLR 23/20 A3001 RMK AO2 SLP156 T02280200 10272 20222 403000189 51010
  • 230453Z AUTO 15007KT 10SM CLR 23/21 A3000 RMK AO2 PRESFR SLP154 T02280206

TAF KMCB
Valid from the 23 at 06:00 until the 24 at 06:00 UTC


230520Z 2306/2406 12007KT P6SM SCT030
FM231000 VRB03KT 5SM BR SCT005 BKN015
FM231500 17007KT P6SM SCT025
KZHU FIR / North America



MET'MAP, your aeronautical weather chart ! - Copyright ORBIFLY December 2007 - Disclaimer

ORBIFLY MET'MAP TEAM :

Programming & Development : Alexandra Zaïnal
Original concept : Baudouin d'Aumeries
Technical & hardware support : Manuel Goepfert
Assistance : Marc-Olivier Méhu




SOURCES & CREDITS :

   NOAA       Earth
Advisory